createdAt,value
2023-05-19T00:00:39.813Z,6.72
2023-05-19T00:05:54.322Z,6.75
2023-05-19T00:10:58.512Z,6.90
2023-05-19T00:16:01.254Z,6.83
2023-05-19T00:21:03.479Z,6.83
2023-05-19T00:26:06.981Z,6.83
2023-05-19T00:31:08.870Z,6.85
2023-05-19T00:36:10.872Z,6.87
2023-05-19T00:41:14.285Z,6.85
2023-05-19T00:46:16.170Z,6.96
2023-05-19T00:51:18.590Z,6.90
2023-05-19T00:56:22.817Z,6.93
2023-05-19T01:01:26.868Z,6.99
2023-05-19T01:06:29.603Z,6.94
2023-05-19T01:11:32.973Z,6.98
2023-05-19T01:16:37.489Z,6.90
2023-05-19T01:22:13.084Z,6.87
2023-05-19T01:27:42.826Z,6.84
2023-05-19T01:32:48.360Z,6.83
2023-05-19T01:37:52.045Z,6.82
2023-05-19T01:42:57.673Z,6.75
2023-05-19T01:48:03.719Z,6.71
2023-05-19T01:53:05.884Z,6.77
2023-05-19T01:58:15.571Z,6.77
2023-05-19T02:03:23.274Z,6.85
2023-05-19T02:08:34.548Z,6.96
2023-05-19T02:13:39.904Z,6.99
2023-05-19T02:18:48.061Z,6.99
2023-05-19T02:23:50.718Z,6.97
2023-05-19T02:28:52.735Z,6.88
2023-05-19T02:33:56.128Z,6.84
2023-05-19T02:38:58.070Z,6.77
2023-05-19T02:44:00.126Z,6.74
2023-05-19T02:49:03.555Z,6.74
2023-05-19T02:54:05.601Z,6.74
2023-05-19T02:59:07.667Z,6.75
2023-05-19T03:04:11.242Z,6.88
2023-05-19T03:09:13.810Z,7.00
2023-05-19T03:14:15.854Z,7.18
2023-05-19T03:19:19.242Z,7.25
2023-05-19T03:24:21.280Z,7.30
2023-05-19T03:29:23.552Z,7.38
2023-05-19T03:34:26.880Z,7.50
2023-05-19T03:39:28.892Z,7.47
2023-05-19T03:44:30.912Z,7.55
2023-05-19T03:49:34.244Z,7.66
2023-05-19T03:54:36.195Z,7.81
2023-05-19T03:59:38.334Z,7.75
2023-05-19T04:04:42.133Z,7.92
2023-05-19T04:09:45.095Z,7.81
2023-05-19T04:14:47.131Z,7.90
2023-05-19T04:19:51.025Z,7.91
2023-05-19T04:24:53.090Z,7.97
2023-05-19T04:29:56.065Z,7.98
2023-05-19T04:34:59.658Z,8.02
2023-05-19T04:40:02.916Z,8.24
2023-05-19T04:45:05.635Z,8.29
2023-05-19T04:50:11.280Z,8.38
2023-05-19T04:55:13.532Z,8.48
2023-05-19T05:00:16.804Z,8.48
2023-05-19T05:05:20.173Z,8.55
2023-05-19T05:10:22.236Z,8.78
2023-05-19T05:15:24.705Z,8.71
2023-05-19T05:20:29.023Z,8.91
2023-05-19T05:25:31.851Z,9.25
2023-05-19T05:30:34.404Z,9.34
2023-05-19T05:35:38.222Z,9.53
2023-05-19T05:40:40.300Z,9.41
2023-05-19T05:45:42.363Z,10.04
2023-05-19T05:50:46.735Z,10.19
2023-05-19T05:55:49.595Z,10.02
2023-05-19T06:00:53.409Z,10.12
2023-05-19T06:05:56.857Z,10.09
2023-05-19T06:10:59.056Z,10.00
2023-05-19T06:16:02.186Z,10.28
2023-05-19T06:21:06.101Z,10.70
2023-05-19T06:26:08.165Z,10.89
2023-05-19T06:31:10.255Z,11.27
2023-05-19T06:36:13.831Z,10.92
2023-05-19T06:41:15.852Z,11.20
2023-05-19T06:46:18.129Z,11.43
2023-05-19T06:51:22.398Z,11.09
2023-05-19T06:56:24.508Z,11.31
2023-05-19T07:01:27.801Z,11.43
2023-05-19T07:06:31.351Z,11.29
2023-05-19T07:11:33.355Z,11.57
2023-05-19T07:16:35.594Z,11.77
2023-05-19T07:21:39.017Z,11.37
2023-05-19T07:26:41.363Z,11.35
2023-05-19T07:31:43.442Z,12.03
2023-05-19T07:36:46.856Z,11.78
2023-05-19T07:41:52.761Z,12.01
2023-05-19T07:46:54.765Z,11.67
2023-05-19T07:51:58.072Z,11.96
2023-05-19T07:57:00.054Z,12.29
2023-05-19T08:02:02.099Z,12.60
2023-05-19T08:07:05.552Z,12.09
2023-05-19T08:12:07.631Z,12.08
2023-05-19T08:17:09.651Z,12.40
2023-05-19T08:22:13.094Z,12.48
2023-05-19T08:27:15.597Z,12.48
2023-05-19T08:32:17.978Z,12.27
2023-05-19T08:37:21.488Z,12.27
2023-05-19T08:42:23.709Z,12.08
2023-05-19T08:47:25.909Z,-145.47
2023-05-19T08:52:35.419Z,12.08
2023-05-19T08:57:38.374Z,12.08
2023-05-19T09:02:50.550Z,-145.47
2023-05-19T09:08:04.900Z,-145.47
2023-05-19T09:13:07.320Z,-145.47
2023-05-19T09:18:11.131Z,12.08
2023-05-19T09:23:16.073Z,12.08
2023-05-19T09:28:26.294Z,12.08
2023-05-19T09:33:30.282Z,13.84
2023-05-19T09:38:35.258Z,13.85
2023-05-19T09:43:37.248Z,14.07
2023-05-19T09:48:39.347Z,14.07
2023-05-19T09:53:47.429Z,14.07
2023-05-19T09:58:50.832Z,14.07
2023-05-19T10:03:53.687Z,-145.47
2023-05-19T10:08:58.614Z,-145.47
2023-05-19T10:14:00.875Z,-145.47
2023-05-19T10:19:04.687Z,-145.47
2023-05-19T10:24:08.153Z,-145.47
2023-05-19T10:29:11.282Z,-145.47
2023-05-19T10:34:34.759Z,-145.47
2023-05-19T10:39:42.368Z,-145.47
2023-05-19T10:44:55.653Z,-145.47
2023-05-19T10:50:00.764Z,-145.47
2023-05-19T10:55:08.623Z,-145.47
2023-05-19T11:00:27.778Z,-145.47
2023-05-19T11:05:30.231Z,-145.47
2023-05-19T11:10:33.694Z,-145.47
2023-05-19T11:15:37.132Z,-145.47
2023-05-19T11:20:39.412Z,-145.47
2023-05-19T11:25:47.124Z,-145.47
2023-05-19T11:30:52.576Z,-145.47
2023-05-19T11:35:59.673Z,-145.47
2023-05-19T11:41:03.651Z,-145.47
2023-05-19T11:46:06.119Z,-145.47
2023-05-19T11:51:08.267Z,-145.47
2023-05-19T11:56:11.746Z,-145.47
2023-05-19T12:01:13.967Z,-145.47
2023-05-19T12:06:17.414Z,-145.47
2023-05-19T12:11:21.201Z,-145.47
2023-05-19T12:16:23.354Z,-145.47
2023-05-19T12:21:25.550Z,-145.47
2023-05-19T12:26:37.702Z,-145.47
2023-05-19T12:31:39.845Z,-145.47
2023-05-19T12:36:41.921Z,-145.47
2023-05-19T12:41:46.113Z,-145.47
2023-05-19T12:46:51.993Z,-145.47
2023-05-19T12:51:54.377Z,-145.47
2023-05-19T12:56:59.313Z,-145.47
2023-05-19T13:02:02.420Z,-145.47
2023-05-19T13:07:04.999Z,-145.47
2023-05-19T13:12:08.505Z,-145.47
2023-05-19T13:17:10.607Z,-145.47
2023-05-19T13:22:12.641Z,-145.47
2023-05-19T13:27:16.070Z,-145.47
2023-05-19T13:32:18.104Z,-145.47
2023-05-19T13:37:20.344Z,-145.47
2023-05-19T13:42:23.823Z,-145.47
2023-05-19T13:47:26.028Z,-145.47
2023-05-19T13:52:30.287Z,-145.47
2023-05-19T13:57:34.012Z,-145.47
2023-05-19T14:02:37.990Z,-145.47
2023-05-19T14:07:40.213Z,-145.47
2023-05-19T14:12:55.112Z,-145.47
2023-05-19T14:18:07.097Z,-145.47
2023-05-19T14:23:09.483Z,-145.47
2023-05-19T14:28:13.028Z,-145.47
2023-05-19T14:33:15.244Z,-145.47
2023-05-19T14:38:17.356Z,-145.47
2023-05-19T14:43:20.736Z,-145.47
2023-05-19T14:48:22.951Z,-145.47
2023-05-19T14:53:25.049Z,-145.47
2023-05-19T14:58:29.368Z,-145.47
2023-05-19T15:03:31.777Z,-145.47
2023-05-19T15:08:33.950Z,-145.47
2023-05-19T15:13:37.353Z,-145.47
2023-05-19T15:18:39.418Z,-145.47
2023-05-19T15:23:41.489Z,-145.47
2023-05-19T15:28:44.885Z,-145.47
2023-05-19T15:33:46.970Z,-145.47
2023-05-19T15:38:48.998Z,-145.47
2023-05-19T15:43:53.516Z,-145.47
2023-05-19T15:48:55.841Z,-145.47
2023-05-19T15:53:57.881Z,-145.47
2023-05-19T15:59:01.408Z,-145.47
2023-05-19T16:04:04.057Z,-145.47
2023-05-19T16:09:06.160Z,-145.47
2023-05-19T16:14:09.586Z,-145.47
2023-05-19T16:19:11.714Z,-145.47
2023-05-19T16:24:14.559Z,-145.47
2023-05-19T16:29:17.914Z,-145.47
2023-05-19T16:34:19.936Z,-145.47
2023-05-19T16:39:22.145Z,-145.47
2023-05-19T16:44:25.666Z,-145.47
2023-05-19T16:49:27.836Z,-145.47
2023-05-19T16:54:30.390Z,-145.47
2023-05-19T16:59:34.200Z,-145.47
2023-05-19T17:04:36.289Z,-145.47
2023-05-19T17:09:38.282Z,-145.47
2023-05-19T17:14:43.445Z,-145.47
2023-05-19T17:19:45.907Z,-145.47
2023-05-19T17:24:48.338Z,-145.47
2023-05-19T17:29:51.924Z,-145.47
2023-05-19T17:34:54.342Z,-145.47
2023-05-19T17:39:56.329Z,-145.47
2023-05-19T17:44:59.776Z,-145.47
2023-05-19T17:50:01.800Z,-145.47
2023-05-19T17:55:04.798Z,-145.47
2023-05-19T18:00:09.015Z,10.84
2023-05-19T18:05:12.429Z,10.83
2023-05-19T18:10:15.702Z,10.83
2023-05-19T18:15:19.232Z,10.83
2023-05-19T18:20:21.268Z,10.82
2023-05-19T18:25:23.446Z,10.81
2023-05-19T18:30:26.924Z,10.80
2023-05-19T18:35:29.015Z,10.78
2023-05-19T18:40:31.354Z,10.76
2023-05-19T18:45:36.472Z,10.74
2023-05-19T18:50:38.590Z,10.72
2023-05-19T18:55:40.736Z,10.70
2023-05-19T19:00:44.359Z,10.68
2023-05-19T19:05:53.125Z,10.66
2023-05-19T19:11:00.142Z,10.63
2023-05-19T19:16:03.742Z,10.60
2023-05-19T19:21:06.223Z,10.57
2023-05-19T19:26:09.511Z,10.53
2023-05-19T19:31:12.875Z,10.49
2023-05-19T19:36:14.975Z,10.45
2023-05-19T19:41:16.956Z,10.40
2023-05-19T19:46:20.437Z,10.35
2023-05-19T19:51:22.458Z,10.31
2023-05-19T19:56:27.301Z,10.27
2023-05-19T20:01:30.801Z,10.23
2023-05-19T20:06:33.324Z,10.20
2023-05-19T20:11:35.448Z,10.17
2023-05-19T20:16:40.420Z,10.14
2023-05-19T20:21:42.589Z,10.11
2023-05-19T20:26:44.595Z,10.09
2023-05-19T20:31:47.971Z,10.08
2023-05-19T20:36:50.029Z,10.05
2023-05-19T20:41:52.076Z,10.00
2023-05-19T20:46:55.525Z,9.94
2023-05-19T20:51:57.546Z,9.90
2023-05-19T20:56:59.731Z,9.86
2023-05-19T21:02:03.190Z,9.84
2023-05-19T21:07:05.523Z,9.83
2023-05-19T21:12:07.827Z,9.82
2023-05-19T21:17:11.395Z,9.82
2023-05-19T21:22:13.450Z,9.82
2023-05-19T21:27:15.675Z,9.82
2023-05-19T21:32:19.234Z,9.82
2023-05-19T21:37:21.653Z,9.82
2023-05-19T21:42:23.768Z,9.82
2023-05-19T21:47:27.245Z,9.82
2023-05-19T21:52:29.362Z,9.82
2023-05-19T21:57:31.449Z,9.82
2023-05-19T22:02:34.866Z,9.82
2023-05-19T22:07:37.592Z,9.82
2023-05-19T22:12:39.644Z,9.84
2023-05-19T22:17:43.102Z,-145.47
2023-05-19T22:22:45.154Z,-145.47
2023-05-19T22:27:47.161Z,9.86
2023-05-19T22:32:50.541Z,9.86
2023-05-19T22:37:52.615Z,9.86
2023-05-19T22:42:54.753Z,9.86
2023-05-19T22:47:58.162Z,9.86
2023-05-19T22:53:00.192Z,-144.82
2023-05-19T22:58:02.309Z,9.86
2023-05-19T23:03:05.767Z,9.88
2023-05-19T23:08:07.902Z,9.88
2023-05-19T23:13:11.844Z,9.88
2023-05-19T23:18:15.327Z,20.20
2023-05-19T23:23:17.459Z,-145.47
2023-05-19T23:28:19.478Z,9.88
2023-05-19T23:33:22.923Z,9.88
2023-05-19T23:38:25.597Z,-145.46
2023-05-19T23:43:27.736Z,9.88
2023-05-19T23:48:31.498Z,9.88
2023-05-19T23:53:33.580Z,-145.47
2023-05-19T23:58:35.592Z,-145.47
